Celebrity Mercury — 9HJG9 — position and weather

sailwx.info

Track history (hours):
 
Tides and Currents Weather Stations Pressure Air Temp Water Temp Dewpoint Dewpoint Depression Visibility Wind Speed Wind Dir Waves Ship Positions

Celebrity Mercury

Last reported at 2018-Aug-17 23:47 UTC. Time now 2018-Aug-18 00:46 UTC.
Position N 37°35' E 015°59'.

Length 264 m; draft 8.5 m.

Type: Ship. MMSI: 249053000.

Date/timePositionNaut miles runAvg speedWind from/ knotsBaromVisibWave heightAir tempDewpointWater temp
2018-Aug-17 23:47N 37°35' E 015°59'3 8.4
2018-Aug-17 23:29N 37°36' E 016°03'5 8.4
2018-Aug-17 22:56N 37°37' E 016°08'5 9.6
2018-Aug-17 22:24N 37°38' E 016°15'  
2018-Aug-13 09:01N 44°05' E 014°03'012.5
2018-Aug-13 09:00N 44°05' E 014°03'1012.4
2018-Aug-13 08:09N 44°14' E 013°55'212.4
2018-Aug-13 07:58N 44°16' E 013°53'912.5
2018-Aug-13 07:17N 44°23' E 013°47'312.4
2018-Aug-13 07:00N 44°26' E 013°44'612.5
2018-Aug-13 06:30N 44°31' E 013°39'612.4
2018-Aug-13 06:00N 44°36' E 013°35'612.5
2018-Aug-13 05:30N 44°41' E 013°30'612.6
2018-Aug-13 05:00N 44°47' E 013°25'612.7
2018-Aug-13 04:30N 44°52' E 013°20'612.7
2018-Aug-13 04:00N 44°57' E 013°15'4 8.5
2018-Aug-13 03:30N 45°01' E 013°11'4 8.5
2018-Aug-13 03:00N 45°04' E 013°08'4 8.6
2018-Aug-13 02:30N 45°07' E 013°04'4 8.7
2018-Aug-13 02:00N 45°12' E 013°02'4 8.8
2018-Aug-13 01:30N 45°16' E 013°01'4 8.7
2018-Aug-13 01:00N 45°20' E 012°60'4 7.8
2018-Aug-13 00:30N 45°24' E 013°01'4 8.0
2018-Aug-13 00:00N 45°26' E 013°05'4 8.0
2018-Aug-12 23:30N 45°29' E 013°10'4 8.1
2018-Aug-12 23:00N 45°31' E 013°14'4 8.2
2018-Aug-12 22:30N 45°34' E 013°19'5 8.4
2018-Aug-12 21:57N 45°35' E 013°25'4 8.4
2018-Aug-12 21:30N 45°37' E 013°30'4 8.7
2018-Aug-12 21:00N 45°38' E 013°36'4 9.0
2018-Aug-12 20:30N 45°39' E 013°42'3 5.3
2018-Aug-12 20:00N 45°39' E 013°46'0 0.0
2018-Aug-12 02:45N 45°39' E 013°46'0 0.0
2018-Aug-12 02:27N 45°39' E 013°46'0 0.3
2018-Aug-12 02:00N 45°39' E 013°46'3 6.5
2018-Aug-12 01:30N 45°39' E 013°41'713.3
2018-Aug-12 01:01N 45°35' E 013°33'815.4
2018-Aug-12 00:31N 45°31' E 013°24'815.3
2018-Aug-12 00:00N 45°26' E 013°16'714.7
2018-Aug-11 23:31N 45°19' E 013°12'815.9
2018-Aug-11 23:00N 45°11' E 013°14'815.8
2018-Aug-11 22:30N 45°04' E 013°16'815.1
2018-Aug-11 22:00N 44°58' E 013°23'918.1
2018-Aug-11 21:31N 44°52' E 013°33'917.9
2018-Aug-11 21:01N 44°46' E 013°43'1018.0
2018-Aug-11 20:29N 44°40' E 013°53'918.3
2018-Aug-11 20:01N 44°35' E 014°02'918.3
2018-Aug-11 19:31N 44°29' E 014°12'918.3
2018-Aug-11 19:00N 44°26' E 014°24'20 1.2
2018-Aug-11 02:54N 44°17' E 014°50'616.2
2018-Aug-11 02:30N 44°21' E 014°42'815.3
2018-Aug-11 02:00N 44°23' E 014°32'713.5
2018-Aug-11 01:31N 44°16' E 014°31'815.7
2018-Aug-11 01:00N 44°10' E 014°37'815.8
2018-Aug-11 00:31N 44°03' E 014°43'5015.6
2018-Aug-10 21:18N 43°21' E 015°20'1715.6
2018-Aug-10 20:12N 43°07' E 015°33'315.6
2018-Aug-10 20:00N 43°04' E 015°35'2415.1
2018-Aug-10 18:25N 42°47' E 015°58'615.5
2018-Aug-10 18:00N 42°43' E 016°05'1615.6
2018-Aug-10 17:01N 42°32' E 016°19'216.1
2018-Aug-10 16:53N 42°30' E 016°21'616.0
2018-Aug-10 16:29N 42°26' E 016°27'816.0
2018-Aug-10 16:00N 42°20' E 016°35'  
Track history (hours):
 
Tides and Currents Weather Stations Pressure Air Temp Water Temp Dewpoint Dewpoint Depression Visibility Wind Speed Wind Dir Waves Ship Positions

Celebrity Mercury

Last reported at 2018-Aug-17 23:47 UTC. Time now 2018-Aug-18 00:46 UTC.
Position N 37°35' E 015°59'.

Length 264 m; draft 8.5 m.

Type: Ship. MMSI: 249053000.

Date/timePositionNaut miles runAvg speedWind from/ knotsBaromVisibWave heightAir tempDewpointWater temp
2018-Aug-17 23:47N 37°35' E 015°59'3 8.4
2018-Aug-17 23:29N 37°36' E 016°03'5 8.4
2018-Aug-17 22:56N 37°37' E 016°08'5 9.6
2018-Aug-17 22:24N 37°38' E 016°15'  
2018-Aug-13 09:01N 44°05' E 014°03'012.5
2018-Aug-13 09:00N 44°05' E 014°03'1012.4
2018-Aug-13 08:09N 44°14' E 013°55'212.4
2018-Aug-13 07:58N 44°16' E 013°53'912.5
2018-Aug-13 07:17N 44°23' E 013°47'312.4
2018-Aug-13 07:00N 44°26' E 013°44'612.5
2018-Aug-13 06:30N 44°31' E 013°39'612.4
2018-Aug-13 06:00N 44°36' E 013°35'612.5
2018-Aug-13 05:30N 44°41' E 013°30'612.6
2018-Aug-13 05:00N 44°47' E 013°25'612.7
2018-Aug-13 04:30N 44°52' E 013°20'612.7
2018-Aug-13 04:00N 44°57' E 013°15'4 8.5
2018-Aug-13 03:30N 45°01' E 013°11'4 8.5
2018-Aug-13 03:00N 45°04' E 013°08'4 8.6
2018-Aug-13 02:30N 45°07' E 013°04'4 8.7
2018-Aug-13 02:00N 45°12' E 013°02'4 8.8
2018-Aug-13 01:30N 45°16' E 013°01'4 8.7
2018-Aug-13 01:00N 45°20' E 012°60'4 7.8
2018-Aug-13 00:30N 45°24' E 013°01'4 8.0
2018-Aug-13 00:00N 45°26' E 013°05'4 8.0
2018-Aug-12 23:30N 45°29' E 013°10'4 8.1
2018-Aug-12 23:00N 45°31' E 013°14'4 8.2
2018-Aug-12 22:30N 45°34' E 013°19'5 8.4
2018-Aug-12 21:57N 45°35' E 013°25'4 8.4
2018-Aug-12 21:30N 45°37' E 013°30'4 8.7
2018-Aug-12 21:00N 45°38' E 013°36'4 9.0
2018-Aug-12 20:30N 45°39' E 013°42'3 5.3
2018-Aug-12 20:00N 45°39' E 013°46'0 0.0
2018-Aug-12 02:45N 45°39' E 013°46'0 0.0
2018-Aug-12 02:27N 45°39' E 013°46'0 0.3
2018-Aug-12 02:00N 45°39' E 013°46'3 6.5
2018-Aug-12 01:30N 45°39' E 013°41'713.3
2018-Aug-12 01:01N 45°35' E 013°33'815.4
2018-Aug-12 00:31N 45°31' E 013°24'815.3
2018-Aug-12 00:00N 45°26' E 013°16'714.7
2018-Aug-11 23:31N 45°19' E 013°12'815.9
2018-Aug-11 23:00N 45°11' E 013°14'815.8
2018-Aug-11 22:30N 45°04' E 013°16'815.1
2018-Aug-11 22:00N 44°58' E 013°23'918.1
2018-Aug-11 21:31N 44°52' E 013°33'917.9
2018-Aug-11 21:01N 44°46' E 013°43'1018.0
2018-Aug-11 20:29N 44°40' E 013°53'918.3
2018-Aug-11 20:01N 44°35' E 014°02'918.3
2018-Aug-11 19:31N 44°29' E 014°12'918.3
2018-Aug-11 19:00N 44°26' E 014°24'20 1.2
2018-Aug-11 02:54N 44°17' E 014°50'616.2
2018-Aug-11 02:30N 44°21' E 014°42'815.3
2018-Aug-11 02:00N 44°23' E 014°32'713.5
2018-Aug-11 01:31N 44°16' E 014°31'815.7
2018-Aug-11 01:00N 44°10' E 014°37'815.8
2018-Aug-11 00:31N 44°03' E 014°43'5015.6
2018-Aug-10 21:18N 43°21' E 015°20'1715.6
2018-Aug-10 20:12N 43°07' E 015°33'315.6
2018-Aug-10 20:00N 43°04' E 015°35'2415.1
2018-Aug-10 18:25N 42°47' E 015°58'615.5
2018-Aug-10 18:00N 42°43' E 016°05'1615.6
2018-Aug-10 17:01N 42°32' E 016°19'216.1
2018-Aug-10 16:53N 42°30' E 016°21'616.0
2018-Aug-10 16:29N 42°26' E 016°27'816.0
2018-Aug-10 16:00N 42°20' E 016°35'  

Dump ship's entire track history